<?xml version="1.0" encoding="UTF-8"?>
<gpx version="1.0" creator="Trackator" xmlns:xsi="http://www.w3.org/2001/XMLSchema-instance" xmlns="http://www.topografix.com/GPX/1/0" xmlns:topografix="http://www.topografix.com/GPX/Private/TopoGrafix/0/1" xsi:schemaLocation="http://www.topografix.com/GPX/1/0 http://www.topografix.com/GPX/1/0/gpx.xsd http://www.topografix.com/GPX/Private/TopoGrafix/0/1 http://www.topografix.com/GPX/Private/TopoGrafix/0/1/topografix.xsd">
<metadata>
<link href="http://www.trackator.com">
<text>Trackator</text>
</link>
</metadata>
<time>2016-09-23T20:12:18Z</time>
<trk>
<name>Track: </name>
<desc>Paragliding</desc>
<trkseg>
<trkpt lat="37.8487733" lon="-1.4446683">
<ele>200</ele>
<time>2016-09-23T20:12:18Z</time>
</trkpt>
<trkpt lat="37.848805" lon="-1.44467">
<ele>206</ele>
<time>2016-09-23T20:12:20Z</time>
</trkpt>
<trkpt lat="37.8488033" lon="-1.4446716">
<ele>213</ele>
<time>2016-09-23T20:12:22Z</time>
</trkpt>
<trkpt lat="37.8487800" lon="-1.4446916">
<ele>222</ele>
<time>2016-09-23T20:12:24Z</time>
</trkpt>
<trkpt lat="37.8487483" lon="-1.4447183">
<ele>226</ele>
<time>2016-09-23T20:12:26Z</time>
</trkpt>
<trkpt lat="37.8487283" lon="-1.4447466">
<ele>228</ele>
<time>2016-09-23T20:12:28Z</time>
</trkpt>
<trkpt lat="37.8487133" lon="-1.4447833">
<ele>230</ele>
<time>2016-09-23T20:12:30Z</time>
</trkpt>
<trkpt lat="37.8487016" lon="-1.4448166">
<ele>232</ele>
<time>2016-09-23T20:12:32Z</time>
</trkpt>
<trkpt lat="37.84867" lon="-1.4448033">
<ele>234</ele>
<time>2016-09-23T20:12:34Z</time>
</trkpt>
<trkpt lat="37.848655" lon="-1.4448183">
<ele>232</ele>
<time>2016-09-23T20:12:36Z</time>
</trkpt>
<trkpt lat="37.8486633" lon="-1.4448333">
<ele>231</ele>
<time>2016-09-23T20:12:38Z</time>
</trkpt>
<trkpt lat="37.8486616" lon="-1.4448433">
<ele>231</ele>
<time>2016-09-23T20:12:40Z</time>
</trkpt>
<trkpt lat="37.8486533" lon="-1.444865">
<ele>231</ele>
<time>2016-09-23T20:12:42Z</time>
</trkpt>
<trkpt lat="37.8486533" lon="-1.4448833">
<ele>231</ele>
<time>2016-09-23T20:12:44Z</time>
</trkpt>
<trkpt lat="37.8488583" lon="-1.444725">
<ele>228</ele>
<time>2016-09-23T20:12:48Z</time>
</trkpt>
<trkpt lat="37.8488599" lon="-1.44474">
<ele>229</ele>
<time>2016-09-23T20:12:50Z</time>
</trkpt>
<trkpt lat="37.8488533" lon="-1.4447266">
<ele>231</ele>
<time>2016-09-23T20:12:52Z</time>
</trkpt>
<trkpt lat="37.8488416" lon="-1.444715">
<ele>232</ele>
<time>2016-09-23T20:12:54Z</time>
</trkpt>
<trkpt lat="37.84884" lon="-1.4447166">
<ele>232</ele>
<time>2016-09-23T20:12:56Z</time>
</trkpt>
<trkpt lat="37.8488633" lon="-1.4447016">
<ele>229</ele>
<time>2016-09-23T20:12:58Z</time>
</trkpt>
<trkpt lat="37.8488716" lon="-1.44469">
<ele>227</ele>
<time>2016-09-23T20:13:00Z</time>
</trkpt>
<trkpt lat="" lon="">
<ele></ele>
<time>2016-09-23TZ</time>
</trkpt>
</trkseg>
</trk>
<wpt lat="" lon="">
	<name></name>
	<desc></desc>
	<cmt></cmt>
	<photoid></photoid>
	<type></type>
</wpt>
</gpx>
